createdAt,value
2022-08-01T00:00:13.177Z,14.40
2022-08-01T00:02:42.646Z,14.40
2022-08-01T00:05:12.045Z,14.30
2022-08-01T00:07:41.539Z,14.30
2022-08-01T00:10:14.933Z,14.20
2022-08-01T00:12:45.394Z,14.20
2022-08-01T00:15:16.506Z,14.10
2022-08-01T00:17:45.784Z,14.10
2022-08-01T00:20:15.851Z,14.00
2022-08-01T00:22:45.156Z,14.00
2022-08-01T00:25:14.426Z,14.00
2022-08-01T00:27:43.612Z,13.90
2022-08-01T00:30:14.938Z,13.90
2022-08-01T00:32:44.508Z,13.90
2022-08-01T00:35:14.527Z,13.90
2022-08-01T00:37:45.158Z,13.90
2022-08-01T00:40:14.416Z,13.90
2022-08-01T00:42:43.985Z,13.90
2022-08-01T00:45:13.659Z,13.90
2022-08-01T00:47:43.076Z,13.90
2022-08-01T00:50:12.409Z,13.90
2022-08-01T00:52:43.150Z,13.90
2022-08-01T00:55:21.361Z,13.90
2022-08-01T00:58:03.160Z,13.80
2022-08-01T01:00:52.565Z,13.80
2022-08-01T01:03:43.552Z,14.00
2022-08-01T01:06:27.167Z,14.00
2022-08-01T01:09:34.215Z,14.00
2022-08-01T01:12:09.594Z,14.00
2022-08-01T01:14:55.799Z,13.90
2022-08-01T01:17:51.181Z,13.80
2022-08-01T01:20:25.386Z,13.80
2022-08-01T01:22:54.556Z,13.80
2022-08-01T01:25:35.497Z,13.80
2022-08-01T01:28:31.397Z,13.80
2022-08-01T01:31:01.526Z,13.80
2022-08-01T01:33:33.017Z,13.80
2022-08-01T01:36:07.583Z,13.70
2022-08-01T01:38:45.366Z,13.70
2022-08-01T01:41:18.187Z,13.70
2022-08-01T01:43:48.612Z,13.60
2022-08-01T01:46:23.626Z,13.60
2022-08-01T01:48:53.387Z,13.50
2022-08-01T01:51:24.164Z,13.50
2022-08-01T01:53:55.807Z,13.40
2022-08-01T01:56:25.902Z,13.40
2022-08-01T01:59:00.458Z,13.30
2022-08-01T02:01:58.506Z,13.30
2022-08-01T02:04:22.642Z,13.30
2022-08-01T02:06:56.194Z,13.20
2022-08-01T02:09:28.663Z,13.20
2022-08-01T02:12:08.668Z,13.10
2022-08-01T02:14:59.489Z,13.10
2022-08-01T02:17:29.368Z,13.10
2022-08-01T02:19:58.836Z,13.00
2022-08-01T02:22:36.848Z,13.00
2022-08-01T02:25:23.736Z,13.00
2022-08-01T02:28:09.213Z,12.90
2022-08-01T02:30:42.760Z,12.90
2022-08-01T02:33:24.653Z,12.90
2022-08-01T02:36:28.934Z,12.90
2022-08-01T02:38:48.995Z,12.90
2022-08-01T02:41:22.060Z,12.80
2022-08-01T02:43:54.220Z,12.90
2022-08-01T02:46:37.651Z,12.90
2022-08-01T02:49:10.156Z,12.90
2022-08-01T02:51:41.432Z,12.90
2022-08-01T02:54:11.831Z,12.80
2022-08-01T02:56:42.196Z,12.80
2022-08-01T02:59:18.965Z,12.70
2022-08-01T03:02:02.885Z,12.70
2022-08-01T03:04:34.968Z,12.60
2022-08-01T03:07:07.432Z,12.60
2022-08-01T03:09:40.500Z,12.60
2022-08-01T03:12:14.770Z,12.60
2022-08-01T03:14:46.662Z,12.60
2022-08-01T03:17:19.416Z,12.50
2022-08-01T03:19:49.819Z,12.50
2022-08-01T03:22:25.735Z,12.50
2022-08-01T03:24:56.043Z,12.50
2022-08-01T03:27:26.261Z,12.40
2022-08-01T03:29:57.410Z,12.40
2022-08-01T03:32:29.113Z,12.40
2022-08-01T03:34:59.010Z,12.40
2022-08-01T03:37:36.553Z,12.40
2022-08-01T03:40:17.466Z,12.40
2022-08-01T03:42:57.572Z,12.40
2022-08-01T03:45:32.626Z,12.40
2022-08-01T03:48:07.415Z,12.40
2022-08-01T03:50:40.755Z,12.40
2022-08-01T03:53:11.708Z,12.40
2022-08-01T03:55:42.708Z,12.40
2022-08-01T03:58:12.979Z,12.40
2022-08-01T04:00:43.391Z,12.40
2022-08-01T04:03:14.015Z,12.50
2022-08-01T04:05:44.040Z,12.50
2022-08-01T04:08:13.245Z,12.50
2022-08-01T04:10:42.852Z,12.50
2022-08-01T04:13:12.181Z,12.50
2022-08-01T04:15:41.418Z,12.50
2022-08-01T04:18:11.006Z,12.60
2022-08-01T04:20:40.247Z,12.80
2022-08-01T04:23:12.112Z,12.90
2022-08-01T04:25:43.595Z,13.00
2022-08-01T04:28:17.390Z,13.10
2022-08-01T04:30:50.563Z,13.30
2022-08-01T04:33:21.443Z,13.40
2022-08-01T04:36:04.078Z,13.50
2022-08-01T04:38:37.846Z,13.70
2022-08-01T04:41:09.855Z,13.80
2022-08-01T04:43:39.561Z,14.00
2022-08-01T04:46:09.696Z,14.10
2022-08-01T04:48:40.850Z,14.30
2022-08-01T04:51:16.722Z,14.40
2022-08-01T04:53:46.968Z,14.50
2022-08-01T04:56:16.317Z,14.60
2022-08-01T04:58:45.874Z,14.70
2022-08-01T05:01:15.272Z,14.80
2022-08-01T05:03:45.147Z,14.90
2022-08-01T05:06:14.343Z,14.90
2022-08-01T05:08:43.495Z,15.00
2022-08-01T05:11:12.715Z,15.10
2022-08-01T05:13:41.892Z,15.20
2022-08-01T05:16:11.134Z,15.30
2022-08-01T05:18:40.336Z,15.30
2022-08-01T05:21:09.677Z,15.40
2022-08-01T05:23:43.299Z,15.50
2022-08-01T05:26:14.492Z,15.60
2022-08-01T05:28:44.194Z,15.70
2022-08-01T05:31:13.471Z,15.80
2022-08-01T05:33:42.660Z,16.00
2022-08-01T05:36:11.950Z,16.10
2022-08-01T05:38:41.228Z,16.30
2022-08-01T05:41:11.580Z,16.40
2022-08-01T05:43:40.755Z,16.50
2022-08-01T05:46:10.192Z,16.60
2022-08-01T05:48:39.640Z,16.70
2022-08-01T05:51:08.804Z,16.90
2022-08-01T05:53:38.093Z,16.90
2022-08-01T05:56:07.345Z,17.00
2022-08-01T05:58:36.727Z,17.20
2022-08-01T06:01:05.906Z,17.30
2022-08-01T06:03:35.155Z,17.40
2022-08-01T06:06:04.894Z,17.50
2022-08-01T06:08:34.334Z,17.60
2022-08-01T06:11:03.882Z,17.70
2022-08-01T06:13:33.166Z,17.80
2022-08-01T06:16:15.218Z,17.90
2022-08-01T06:18:44.547Z,18.00
2022-08-01T06:21:21.350Z,18.10
2022-08-01T06:23:50.635Z,18.30
2022-08-01T06:26:20.448Z,18.40
2022-08-01T06:28:49.620Z,18.50
2022-08-01T06:31:18.877Z,18.70
2022-08-01T06:33:48.089Z,18.80
2022-08-01T06:36:17.441Z,18.80
2022-08-01T06:38:46.600Z,18.90
2022-08-01T06:41:15.965Z,19.00
2022-08-01T06:43:45.164Z,19.10
2022-08-01T06:46:14.464Z,19.30
2022-08-01T06:48:43.767Z,19.40
2022-08-01T06:51:16.552Z,19.60
2022-08-01T06:53:45.764Z,19.70
2022-08-01T06:56:14.980Z,19.90
2022-08-01T06:58:44.230Z,20.10
2022-08-01T07:01:13.935Z,20.30
2022-08-01T07:03:52.430Z,20.50
2022-08-01T07:06:25.819Z,20.60
2022-08-01T07:08:55.477Z,20.80
2022-08-01T07:11:25.393Z,21.00
2022-08-01T07:13:54.689Z,21.20
2022-08-01T07:16:24.183Z,21.30
2022-08-01T07:18:53.493Z,21.50
2022-08-01T07:21:39.642Z,21.70
2022-08-01T07:24:15.115Z,21.80
2022-08-01T07:26:53.805Z,22.00
2022-08-01T07:29:27.983Z,22.20
2022-08-01T07:31:58.800Z,22.30
2022-08-01T07:34:28.007Z,22.50
2022-08-01T07:36:57.204Z,22.60
2022-08-01T07:39:26.417Z,22.70
